Metar z połowy godziny Komunikat METAR ze strony awiacja.imgw.pl Metar G00 EPWA METAR EPWA 261730Z 27012KT 9999 BKN014 BKN023 01/M01 Q1006 R33/2///95 NOSIG=